Time;durP1;ratioP1;P1;durP2;ratioP2;P2;SDS_P1;SDS_P2;PMS_P1;PMS_P2;Temp;Humidity;BMP_temperature;BMP_pressure;BME280_temperature;BME280_humidity;BME280_pressure;Samples;Min_cycle;Max_cycle;Signal;HPM_P1;HPM_P2
2021/10/31 00:00:22;;;;;;;21.73;11.65;;;;;;;;;;4991333;28;20034;-85
2021/10/31 00:02:48;;;;;;;20.73;11.07;;;;;;;;;;4991639;28;20084;-85
2021/10/31 00:05:15;;;;;;;20.60;11.32;;;;;;;;;;4990016;28;20022;-85
2021/10/31 00:07:41;;;;;;;22.45;11.13;;;;;;;;;;4986882;28;20082;-85
2021/10/31 00:10:07;;;;;;;20.77;10.93;;;;;;;;;;4987213;28;20069;-85
2021/10/31 00:12:33;;;;;;;19.75;10.27;;;;;;;;;;4989293;28;20478;-85
2021/10/31 00:14:59;;;;;;;23.83;10.93;;;;;;;;;;4993634;28;20029;-86
2021/10/31 00:17:25;;;;;;;20.02;10.30;;;;;;;;;;4989941;28;20088;-85
2021/10/31 00:19:53;;;;;;;20.10;10.73;;;;;;;;;;4997583;28;20027;-85
2021/10/31 00:22:19;;;;;;;21.83;10.70;;;;;;;;;;4990162;28;20023;-85
2021/10/31 00:24:45;;;;;;;20.60;10.30;;;;;;;;;;4992008;28;20081;-85
2021/10/31 00:27:11;;;;;;;19.70;10.80;;;;;;;;;;4995061;28;20077;-85
2021/10/31 00:29:37;;;;;;;20.00;10.35;;;;;;;;;;4991592;28;20426;-85
2021/10/31 00:32:04;;;;;;;21.90;10.70;;;;;;;;;;4991807;28;20026;-85
2021/10/31 00:34:31;;;;;;;23.02;11.27;;;;;;;;;;5003972;28;20054;-85
2021/10/31 00:36:57;;;;;;;23.95;10.60;;;;;;;;;;4996972;28;20033;-85
2021/10/31 00:39:23;;;;;;;17.35;9.20;;;;;;;;;;4995723;28;20085;-85
2021/10/31 00:41:49;;;;;;;19.48;10.50;;;;;;;;;;4992726;28;20027;-85
2021/10/31 00:44:15;;;;;;;18.48;10.45;;;;;;;;;;4997032;28;20038;-85
2021/10/31 00:46:41;;;;;;;18.23;9.75;;;;;;;;;;4986458;28;20010;-85
2021/10/31 00:49:07;;;;;;;17.35;10.02;;;;;;;;;;4987431;28;20475;-85
2021/10/31 00:51:33;;;;;;;21.90;9.73;;;;;;;;;;4985846;28;20497;-85
2021/10/31 00:54:00;;;;;;;20.55;9.93;;;;;;;;;;4996045;28;20069;-86
2021/10/31 00:56:27;;;;;;;15.52;9.85;;;;;;;;;;4989607;28;20380;-85
2021/10/31 00:58:53;;;;;;;17.65;10.25;;;;;;;;;;4996802;28;20398;-85
2021/10/31 01:01:20;;;;;;;17.92;9.00;;;;;;;;;;4996335;28;20372;-85
2021/10/31 01:03:46;;;;;;;20.55;9.90;;;;;;;;;;4977388;28;20038;-85
2021/10/31 01:06:20;;;;;;;19.70;9.93;;;;;;;;;;4997070;28;20495;-87
2021/10/31 01:08:50;;;;;;;18.60;9.70;;;;;;;;;;5000831;28;20045;-87
2021/10/31 01:11:19;;;;;;;21.73;10.00;;;;;;;;;;4980901;28;20308;-87
2021/10/31 01:14:04;;;;;;;17.38;9.70;;;;;;;;;;4990394;28;20117;-87
2021/10/31 01:16:49;;;;;;;19.13;10.07;;;;;;;;;;4977829;28;20429;-87
2021/10/31 01:19:34;;;;;;;17.95;10.55;;;;;;;;;;4990844;28;20188;-87
2021/10/31 01:22:03;;;;;;;18.88;10.05;;;;;;;;;;4993390;28;20038;-87
2021/10/31 01:24:32;;;;;;;15.95;8.73;;;;;;;;;;4995158;28;20034;-87
2021/10/31 01:27:17;;;;;;;19.27;9.70;;;;;;;;;;4993275;28;20498;-87
2021/10/31 01:30:02;;;;;;;19.02;10.13;;;;;;;;;;4990453;28;20023;-87
2021/10/31 01:32:32;;;;;;;19.13;10.32;;;;;;;;;;4971813;28;20026;-87
2021/10/31 01:35:14;;;;;;;17.52;8.85;;;;;;;;;;4996159;28;20483;-87
2021/10/31 01:37:49;;;;;;;18.95;8.77;;;;;;;;;;4994418;28;20126;-87
2021/10/31 01:40:27;;;;;;;15.68;8.90;;;;;;;;;;4983307;28;20412;-87
2021/10/31 01:43:01;;;;;;;17.98;9.65;;;;;;;;;;4989165;28;20439;-87
2021/10/31 01:45:39;;;;;;;18.95;9.07;;;;;;;;;;4989245;28;20027;-87
2021/10/31 01:48:13;;;;;;;16.05;9.10;;;;;;;;;;4994303;28;20057;-86
2021/10/31 01:50:42;;;;;;;18.05;9.60;;;;;;;;;;4978028;28;20117;-87
2021/10/31 01:53:12;;;;;;;15.15;8.75;;;;;;;;;;4977722;28;20034;-87
2021/10/31 01:55:40;;;;;;;17.48;9.52;;;;;;;;;;4973783;28;20018;-87
2021/10/31 01:58:07;;;;;;;17.25;8.82;;;;;;;;;;4995042;28;20045;-86
2021/10/31 02:00:33;;;;;;;16.27;8.93;;;;;;;;;;4991671;28;20090;-86
2021/10/31 02:03:02;;;;;;;18.27;10.38;;;;;;;;;;4997127;28;20022;-85
2021/10/31 02:05:30;;;;;;;19.20;9.63;;;;;;;;;;4992050;28;20030;-85
2021/10/31 02:07:58;;;;;;;17.98;9.25;;;;;;;;;;4993685;28;20497;-85
2021/10/31 02:10:24;;;;;;;19.33;10.48;;;;;;;;;;4995640;28;20034;-85
2021/10/31 02:12:51;;;;;;;19.33;10.07;;;;;;;;;;4992336;28;20027;-85
2021/10/31 02:15:18;;;;;;;15.70;9.13;;;;;;;;;;4998925;28;20034;-85
2021/10/31 02:17:48;;;;;;;20.38;9.85;;;;;;;;;;4998307;28;20125;-85
2021/10/31 02:20:15;;;;;;;17.88;9.90;;;;;;;;;;5005771;28;20470;-85
2021/10/31 02:22:42;;;;;;;18.92;9.35;;;;;;;;;;4981617;28;20024;-85
2021/10/31 02:25:09;;;;;;;19.52;10.75;;;;;;;;;;4982748;28;20034;-85
2021/10/31 02:27:36;;;;;;;18.60;9.77;;;;;;;;;;4995628;28;20055;-85
2021/10/31 02:30:04;;;;;;;18.65;10.00;;;;;;;;;;4976958;28;20034;-85
2021/10/31 02:32:31;;;;;;;22.23;9.77;;;;;;;;;;4989633;28;20034;-85
2021/10/31 02:34:58;;;;;;;18.20;10.05;;;;;;;;;;4988291;28;20022;-85
2021/10/31 02:37:25;;;;;;;18.83;10.05;;;;;;;;;;5001040;28;20038;-85
2021/10/31 02:39:51;;;;;;;16.35;8.77;;;;;;;;;;4983425;28;20034;-85
2021/10/31 02:42:17;;;;;;;17.60;9.50;;;;;;;;;;4996357;28;20051;-85
2021/10/31 02:44:43;;;;;;;17.42;9.13;;;;;;;;;;4997002;28;20114;-85
2021/10/31 02:47:10;;;;;;;17.65;9.52;;;;;;;;;;4994497;28;20494;-85
2021/10/31 02:49:37;;;;;;;21.90;10.00;;;;;;;;;;5003600;28;20077;-86
2021/10/31 02:52:10;;;;;;;17.65;9.80;;;;;;;;;;4996965;28;20050;-85
2021/10/31 02:54:48;;;;;;;19.33;9.82;;;;;;;;;;5003130;28;20066;-85
2021/10/31 02:57:20;;;;;;;18.73;9.57;;;;;;;;;;4999830;28;20509;-85
2021/10/31 02:59:51;;;;;;;15.95;9.23;;;;;;;;;;4984136;28;20117;-85
2021/10/31 03:02:18;;;;;;;16.58;8.43;;;;;;;;;;4976770;28;20470;-85
2021/10/31 03:04:45;;;;;;;16.10;8.15;;;;;;;;;;4993759;28;20057;-85
2021/10/31 03:07:12;;;;;;;18.98;10.13;;;;;;;;;;4988486;28;20038;-85
2021/10/31 03:09:38;;;;;;;18.08;9.32;;;;;;;;;;4995279;28;20377;-85
2021/10/31 03:12:09;;;;;;;16.73;8.18;;;;;;;;;;4976728;28;20034;-85
2021/10/31 03:14:35;;;;;;;17.67;9.15;;;;;;;;;;4990112;28;20033;-85
2021/10/31 03:17:02;;;;;;;15.10;8.95;;;;;;;;;;4974932;28;20185;-85
2021/10/31 03:19:28;;;;;;;17.42;8.45;;;;;;;;;;4989402;28;20034;-85
2021/10/31 03:21:55;;;;;;;17.20;8.43;;;;;;;;;;4983364;28;20233;-85
2021/10/31 03:24:21;;;;;;;17.02;9.50;;;;;;;;;;4992915;28;20038;-85
2021/10/31 03:26:47;;;;;;;16.55;9.07;;;;;;;;;;4994936;28;20415;-85
2021/10/31 03:29:13;;;;;;;17.08;8.73;;;;;;;;;;4990559;28;20035;-85
2021/10/31 03:31:39;;;;;;;18.02;9.52;;;;;;;;;;4974101;28;20030;-85
2021/10/31 03:34:05;;;;;;;16.38;8.07;;;;;;;;;;4987217;28;20384;-85
2021/10/31 03:36:31;;;;;;;15.38;8.88;;;;;;;;;;4991560;28;20121;-85
2021/10/31 03:38:57;;;;;;;22.13;9.65;;;;;;;;;;4990245;28;20027;-85
2021/10/31 03:41:23;;;;;;;15.52;8.45;;;;;;;;;;4992680;28;20035;-85
2021/10/31 03:43:49;;;;;;;19.42;9.02;;;;;;;;;;4987796;28;20034;-85
2021/10/31 03:46:15;;;;;;;17.45;8.75;;;;;;;;;;4986558;28;20449;-85
2021/10/31 03:48:41;;;;;;;18.50;8.90;;;;;;;;;;4997157;28;20022;-85
2021/10/31 03:51:07;;;;;;;14.68;8.30;;;;;;;;;;5000248;28;20034;-85
2021/10/31 03:53:33;;;;;;;18.42;8.65;;;;;;;;;;4997438;28;20093;-85
2021/10/31 03:55:59;;;;;;;19.40;8.38;;;;;;;;;;4983305;28;20030;-85
2021/10/31 03:58:25;;;;;;;14.55;8.07;;;;;;;;;;4997858;28;20030;-85
2021/10/31 04:00:51;;;;;;;15.15;7.55;;;;;;;;;;4976271;28;20124;-85
2021/10/31 04:03:17;;;;;;;16.92;8.80;;;;;;;;;;4984022;28;20054;-85
2021/10/31 04:05:43;;;;;;;14.15;8.38;;;;;;;;;;4985729;28;20386;-85
2021/10/31 04:08:09;;;;;;;13.55;7.57;;;;;;;;;;4978412;28;20030;-85
2021/10/31 04:10:35;;;;;;;21.15;8.75;;;;;;;;;;4994061;28;20037;-85
2021/10/31 04:13:01;;;;;;;12.90;7.53;;;;;;;;;;4979188;28;20030;-85
2021/10/31 04:15:27;;;;;;;16.83;8.07;;;;;;;;;;4992138;28;20070;-85
2021/10/31 04:17:53;;;;;;;12.63;7.85;;;;;;;;;;4978460;28;20493;-85
2021/10/31 04:20:19;;;;;;;14.77;8.32;;;;;;;;;;4979403;28;20077;-85
2021/10/31 04:22:47;;;;;;;15.73;8.45;;;;;;;;;;4989379;28;20035;-85
2021/10/31 04:25:13;;;;;;;14.38;7.97;;;;;;;;;;4990793;28;20062;-85
2021/10/31 04:27:39;;;;;;;14.15;7.47;;;;;;;;;;4991163;28;20049;-85
2021/10/31 04:30:06;;;;;;;14.02;7.28;;;;;;;;;;4993761;28;20478;-85
2021/10/31 04:32:32;;;;;;;11.07;7.18;;;;;;;;;;4983315;28;20030;-85
2021/10/31 04:34:58;;;;;;;15.55;7.50;;;;;;;;;;4990954;28;20039;-85
2021/10/31 04:37:25;;;;;;;12.55;7.03;;;;;;;;;;4989935;28;20113;-85
2021/10/31 04:39:51;;;;;;;15.75;7.93;;;;;;;;;;4980348;28;20056;-85
2021/10/31 04:42:18;;;;;;;17.02;7.55;;;;;;;;;;4993712;28;20506;-85
2021/10/31 04:44:44;;;;;;;14.70;7.63;;;;;;;;;;4990729;28;20096;-85
2021/10/31 04:47:10;;;;;;;13.05;7.10;;;;;;;;;;4987516;28;20069;-85
2021/10/31 04:49:36;;;;;;;12.07;6.80;;;;;;;;;;4991338;28;20108;-85
2021/10/31 04:52:03;;;;;;;13.50;7.38;;;;;;;;;;4987628;28;20501;-85
2021/10/31 04:54:29;;;;;;;13.60;7.35;;;;;;;;;;4993020;28;20089;-85
2021/10/31 04:56:55;;;;;;;11.95;7.18;;;;;;;;;;4993591;28;20026;-84
2021/10/31 04:59:21;;;;;;;12.98;7.05;;;;;;;;;;4992850;28;20085;-84
2021/10/31 05:01:49;;;;;;;13.02;7.53;;;;;;;;;;4994114;28;20077;-84
2021/10/31 05:04:17;;;;;;;12.35;6.53;;;;;;;;;;4990997;28;20033;-84
2021/10/31 05:06:44;;;;;;;10.95;6.65;;;;;;;;;;4989089;28;20098;-84
2021/10/31 05:09:09;;;;;;;10.25;6.22;;;;;;;;;;4986202;28;20027;-84
2021/10/31 05:11:35;;;;;;;12.55;6.78;;;;;;;;;;4977583;28;20030;-84
2021/10/31 05:14:01;;;;;;;11.13;6.55;;;;;;;;;;4992037;28;20042;-84
2021/10/31 05:16:27;;;;;;;11.57;6.28;;;;;;;;;;4993682;28;20141;-84
2021/10/31 05:18:55;;;;;;;13.18;6.93;;;;;;;;;;4997167;28;20106;-84
2021/10/31 05:21:21;;;;;;;11.82;6.80;;;;;;;;;;4992060;28;20042;-84
2021/10/31 05:23:47;;;;;;;12.35;6.05;;;;;;;;;;4992109;28;20018;-84
2021/10/31 05:26:13;;;;;;;15.15;6.95;;;;;;;;;;4990257;28;20126;-84
2021/10/31 05:28:39;;;;;;;13.02;6.80;;;;;;;;;;4977760;28;20104;-84
2021/10/31 05:31:05;;;;;;;12.50;6.20;;;;;;;;;;4984065;28;20426;-84
2021/10/31 05:33:32;;;;;;;10.65;5.75;;;;;;;;;;4978214;28;20022;-84
2021/10/31 05:35:58;;;;;;;13.55;6.97;;;;;;;;;;4976614;28;20386;-84
2021/10/31 05:38:24;;;;;;;11.70;6.85;;;;;;;;;;4991659;28;20109;-84
2021/10/31 05:40:50;;;;;;;14.93;7.32;;;;;;;;;;4992369;28;20081;-84
2021/10/31 05:43:17;;;;;;;10.75;6.47;;;;;;;;;;4978239;28;20565;-84
2021/10/31 05:45:43;;;;;;;13.63;6.90;;;;;;;;;;4986121;28;20030;-84
2021/10/31 05:48:09;;;;;;;11.63;6.82;;;;;;;;;;4989076;28;20374;-84
2021/10/31 05:50:35;;;;;;;12.15;6.68;;;;;;;;;;4989678;28;20027;-84
2021/10/31 05:53:01;;;;;;;15.27;7.70;;;;;;;;;;4963658;28;20534;-84
2021/10/31 05:55:27;;;;;;;11.30;6.75;;;;;;;;;;4989114;28;20038;-83
2021/10/31 05:57:53;;;;;;;12.63;6.45;;;;;;;;;;4990815;28;20023;-84
2021/10/31 06:00:19;;;;;;;12.00;7.07;;;;;;;;;;4988022;28;20058;-83
2021/10/31 06:02:46;;;;;;;12.18;6.60;;;;;;;;;;4983982;28;20035;-84
2021/10/31 06:05:12;;;;;;;12.05;7.18;;;;;;;;;;4980755;28;20035;-84
2021/10/31 06:07:42;;;;;;;14.23;7.07;;;;;;;;;;4982019;28;20603;-84
2021/10/31 06:10:08;;;;;;;13.13;7.28;;;;;;;;;;4985885;28;20489;-84
2021/10/31 06:12:35;;;;;;;13.70;7.25;;;;;;;;;;4988175;28;20510;-84
2021/10/31 06:15:02;;;;;;;13.18;7.07;;;;;;;;;;4985907;28;20402;-84
2021/10/31 06:17:28;;;;;;;13.13;6.88;;;;;;;;;;4988403;28;20467;-84
2021/10/31 06:19:54;;;;;;;12.73;7.10;;;;;;;;;;4991565;28;20033;-84
2021/10/31 06:22:20;;;;;;;12.77;6.78;;;;;;;;;;4976860;28;20391;-84
2021/10/31 06:24:46;;;;;;;12.95;7.15;;;;;;;;;;4978887;28;20038;-84
2021/10/31 06:27:12;;;;;;;13.50;7.65;;;;;;;;;;4987280;28;20043;-84
2021/10/31 06:29:38;;;;;;;12.90;7.20;;;;;;;;;;4993417;28;20030;-84
2021/10/31 06:32:04;;;;;;;12.95;7.10;;;;;;;;;;4974967;28;20049;-84
2021/10/31 06:34:30;;;;;;;13.20;7.35;;;;;;;;;;4987508;28;20038;-84
2021/10/31 06:36:56;;;;;;;14.20;8.00;;;;;;;;;;4984392;28;20026;-84
2021/10/31 06:39:22;;;;;;;14.52;7.68;;;;;;;;;;4989938;28;20027;-84
2021/10/31 06:41:48;;;;;;;13.80;7.25;;;;;;;;;;4987821;28;20022;-84
2021/10/31 06:44:14;;;;;;;13.70;7.43;;;;;;;;;;4987628;28;20026;-84
2021/10/31 06:46:40;;;;;;;14.50;7.93;;;;;;;;;;4992301;28;20045;-84
2021/10/31 06:49:08;;;;;;;15.00;7.57;;;;;;;;;;4995333;28;20253;-84
2021/10/31 06:51:35;;;;;;;14.98;7.38;;;;;;;;;;4976229;28;20114;-84
2021/10/31 06:54:01;;;;;;;15.40;7.43;;;;;;;;;;4993545;28;20125;-84
2021/10/31 06:56:27;;;;;;;14.68;7.63;;;;;;;;;;4974605;28;20033;-84
2021/10/31 06:58:54;;;;;;;12.57;7.25;;;;;;;;;;4991073;28;20035;-84
2021/10/31 07:01:20;;;;;;;13.95;8.00;;;;;;;;;;4975590;28;20030;-84
2021/10/31 07:03:48;;;;;;;16.17;8.65;;;;;;;;;;4974823;28;20030;-83
2021/10/31 07:06:15;;;;;;;11.98;7.07;;;;;;;;;;4965262;28;20394;-84
2021/10/31 07:08:42;;;;;;;13.75;7.00;;;;;;;;;;4984326;28;20101;-84
2021/10/31 07:11:08;;;;;;;15.27;7.93;;;;;;;;;;4989513;28;20471;-84
2021/10/31 07:13:34;;;;;;;13.27;7.22;;;;;;;;;;4990229;28;20053;-84
2021/10/31 07:16:00;;;;;;;12.75;7.13;;;;;;;;;;4992948;28;20478;-85
2021/10/31 07:18:26;;;;;;;14.77;7.45;;;;;;;;;;4987580;28;20122;-83
2021/10/31 07:20:52;;;;;;;16.25;8.60;;;;;;;;;;4983017;28;20041;-82
2021/10/31 07:23:18;;;;;;;16.30;7.43;;;;;;;;;;4986334;28;20034;-85
2021/10/31 07:25:44;;;;;;;14.55;8.20;;;;;;;;;;4985848;28;20101;-87
2021/10/31 07:28:10;;;;;;;13.75;6.82;;;;;;;;;;4984353;28;20066;-84
2021/10/31 07:30:36;;;;;;;16.63;8.55;;;;;;;;;;4990636;28;20042;-84
2021/10/31 07:33:02;;;;;;;14.38;7.65;;;;;;;;;;4986717;28;20041;-84
2021/10/31 07:35:29;;;;;;;14.63;7.80;;;;;;;;;;4985323;28;20177;-83
2021/10/31 07:37:55;;;;;;;14.38;7.80;;;;;;;;;;4971173;28;20078;-84
2021/10/31 07:40:22;;;;;;;13.93;7.90;;;;;;;;;;4982981;28;20026;-83
2021/10/31 07:42:48;;;;;;;16.80;7.35;;;;;;;;;;4982009;28;20061;-84
2021/10/31 07:45:14;;;;;;;15.85;7.82;;;;;;;;;;4975981;28;20027;-84
2021/10/31 07:47:41;;;;;;;13.07;7.10;;;;;;;;;;4992707;28;20118;-84
2021/10/31 07:50:08;;;;;;;11.85;6.97;;;;;;;;;;4973868;28;20042;-84
2021/10/31 07:52:34;;;;;;;16.85;7.80;;;;;;;;;;4987957;28;20122;-84
2021/10/31 07:55:03;;;;;;;12.38;6.60;;;;;;;;;;4974321;28;20493;-84
2021/10/31 07:57:30;;;;;;;14.15;7.32;;;;;;;;;;4984739;28;20561;-85
2021/10/31 07:59:56;;;;;;;14.30;7.35;;;;;;;;;;4990010;28;20413;-85
2021/10/31 08:02:22;;;;;;;9.70;6.32;;;;;;;;;;4978046;28;20031;-84
2021/10/31 08:04:48;;;;;;;13.63;7.50;;;;;;;;;;4986998;28;20065;-84
2021/10/31 08:07:15;;;;;;;12.07;6.78;;;;;;;;;;4985474;28;20022;-84
2021/10/31 08:09:41;;;;;;;14.60;7.40;;;;;;;;;;4977942;28;20441;-84
2021/10/31 08:12:07;;;;;;;13.15;7.18;;;;;;;;;;4975519;28;20042;-84
2021/10/31 08:14:33;;;;;;;11.98;6.55;;;;;;;;;;4989267;28;20030;-83
2021/10/31 08:16:59;;;;;;;13.27;7.00;;;;;;;;;;4987036;28;20038;-84
2021/10/31 08:19:25;;;;;;;13.57;7.20;;;;;;;;;;4980402;28;20030;-84
2021/10/31 08:21:52;;;;;;;13.27;7.15;;;;;;;;;;4984571;28;20084;-85
2021/10/31 08:24:19;;;;;;;11.93;6.93;;;;;;;;;;4975714;28;20025;-85
2021/10/31 08:26:45;;;;;;;12.27;6.47;;;;;;;;;;4991652;28;20050;-85
2021/10/31 08:29:19;;;;;;;12.10;7.03;;;;;;;;;;4979540;28;20053;-84
2021/10/31 08:31:49;;;;;;;12.10;6.95;;;;;;;;;;4985195;28;20034;-84
2021/10/31 08:34:15;;;;;;;11.68;6.38;;;;;;;;;;4990504;28;20058;-86
2021/10/31 08:36:41;;;;;;;11.65;7.57;;;;;;;;;;4990308;28;20050;-84
2021/10/31 08:39:07;;;;;;;13.60;7.18;;;;;;;;;;4989277;28;20460;-84
2021/10/31 08:41:33;;;;;;;12.73;7.28;;;;;;;;;;4980417;28;20438;-84
2021/10/31 08:44:00;;;;;;;13.73;7.40;;;;;;;;;;4988944;28;20038;-82
2021/10/31 08:46:27;;;;;;;11.82;7.13;;;;;;;;;;4991308;28;20466;-80
2021/10/31 08:48:53;;;;;;;10.57;6.28;;;;;;;;;;4988737;28;20113;-83
2021/10/31 08:51:24;;;;;;;10.82;6.45;;;;;;;;;;4983868;28;20130;-84
2021/10/31 08:53:50;;;;;;;14.07;7.07;;;;;;;;;;4984188;28;20026;-86
2021/10/31 08:56:17;;;;;;;14.15;7.25;;;;;;;;;;4991541;28;20123;-82
2021/10/31 08:58:43;;;;;;;12.52;6.13;;;;;;;;;;4988672;28;20080;-82
2021/10/31 09:01:14;;;;;;;11.60;6.40;;;;;;;;;;4967326;28;20033;-83
2021/10/31 09:03:41;;;;;;;13.75;6.72;;;;;;;;;;4991507;28;20065;-83
2021/10/31 09:06:07;;;;;;;13.40;7.15;;;;;;;;;;4992849;28;20441;-83
2021/10/31 09:08:33;;;;;;;12.13;6.60;;;;;;;;;;4992345;28;20117;-83
2021/10/31 09:10:59;;;;;;;12.88;6.82;;;;;;;;;;4971984;28;20026;-84
2021/10/31 09:13:25;;;;;;;9.77;6.00;;;;;;;;;;4989631;28;20035;-83
2021/10/31 09:15:51;;;;;;;10.60;5.90;;;;;;;;;;4981796;28;20501;-83
2021/10/31 09:18:18;;;;;;;10.52;5.18;;;;;;;;;;4984504;28;20030;-83
2021/10/31 09:20:44;;;;;;;10.05;5.72;;;;;;;;;;4996287;28;20400;-83
2021/10/31 09:23:11;;;;;;;10.38;6.10;;;;;;;;;;4990688;28;20034;-83
2021/10/31 09:25:37;;;;;;;9.93;5.88;;;;;;;;;;4983387;28;20037;-83
2021/10/31 09:28:05;;;;;;;9.73;4.80;;;;;;;;;;4988269;28;20545;-84
2021/10/31 09:30:32;;;;;;;8.80;5.15;;;;;;;;;;4992881;28;20026;-84
2021/10/31 09:32:58;;;;;;;9.02;5.63;;;;;;;;;;4992547;28;20061;-84
2021/10/31 09:35:25;;;;;;;10.13;5.65;;;;;;;;;;4989585;28;20379;-84
2021/10/31 09:37:55;;;;;;;12.43;6.25;;;;;;;;;;4992352;28;20038;-85
2021/10/31 09:40:22;;;;;;;10.38;5.10;;;;;;;;;;4977891;28;20483;-84
2021/10/31 09:42:50;;;;;;;8.00;5.20;;;;;;;;;;4992823;28;20101;-84
2021/10/31 09:45:16;;;;;;;10.80;5.53;;;;;;;;;;4979107;28;20030;-84
2021/10/31 09:47:43;;;;;;;9.73;5.45;;;;;;;;;;4994614;28;20174;-85
2021/10/31 09:50:10;;;;;;;8.00;5.28;;;;;;;;;;4990571;28;20210;-83
2021/10/31 09:52:36;;;;;;;10.70;5.97;;;;;;;;;;4976547;28;20085;-84
2021/10/31 09:55:03;;;;;;;13.30;6.50;;;;;;;;;;4975846;28;20471;-84
2021/10/31 09:57:29;;;;;;;9.10;5.70;;;;;;;;;;4986474;28;20032;-84
2021/10/31 09:59:58;;;;;;;10.27;5.50;;;;;;;;;;4975190;28;20086;-84
2021/10/31 10:02:44;;;;;;;9.55;5.88;;;;;;;;;;4989752;28;20030;-83
2021/10/31 10:05:15;;;;;;;10.57;5.88;;;;;;;;;;4983703;28;20033;-84
2021/10/31 10:07:42;;;;;;;10.02;5.18;;;;;;;;;;4992528;28;20094;-83
2021/10/31 10:10:12;;;;;;;11.45;5.88;;;;;;;;;;4990017;28;20130;-82
2021/10/31 10:12:37;;;;;;;9.88;5.72;;;;;;;;;;4991784;28;20092;-84
2021/10/31 10:15:05;;;;;;;8.48;4.93;;;;;;;;;;4987908;28;20034;-84
2021/10/31 10:17:45;;;;;;;11.35;5.68;;;;;;;;;;4982153;28;20026;-84
2021/10/31 10:20:12;;;;;;;9.38;5.20;;;;;;;;;;4989537;28;20026;-84
2021/10/31 10:22:38;;;;;;;10.45;5.43;;;;;;;;;;4991868;28;20109;-84
2021/10/31 10:25:05;;;;;;;8.40;4.97;;;;;;;;;;4978805;28;20027;-84
2021/10/31 10:27:36;;;;;;;11.20;5.38;;;;;;;;;;4988261;28;20047;-84
2021/10/31 10:30:12;;;;;;;11.10;5.32;;;;;;;;;;4988211;28;20516;-84
2021/10/31 10:32:47;;;;;;;8.50;5.20;;;;;;;;;;4991675;28;20172;-84
2021/10/31 10:35:17;;;;;;;8.73;4.55;;;;;;;;;;4993007;28;20026;-84
2021/10/31 10:37:43;;;;;;;8.80;4.95;;;;;;;;;;4992400;28;20038;-84
2021/10/31 10:40:17;;;;;;;8.23;4.70;;;;;;;;;;4987553;28;20034;-83
2021/10/31 10:42:57;;;;;;;6.85;4.22;;;;;;;;;;4989407;28;20014;-84
2021/10/31 10:45:25;;;;;;;8.07;4.47;;;;;;;;;;4984853;28;20019;-83
2021/10/31 10:47:53;;;;;;;6.72;4.25;;;;;;;;;;4989680;28;20050;-82
2021/10/31 10:50:21;;;;;;;8.50;4.88;;;;;;;;;;4986952;28;20030;-83
2021/10/31 10:52:47;;;;;;;7.85;4.75;;;;;;;;;;4992494;28;20121;-83
2021/10/31 10:55:17;;;;;;;7.38;4.70;;;;;;;;;;4988852;28;20030;-82
2021/10/31 10:57:45;;;;;;;8.48;4.53;;;;;;;;;;4988213;28;20058;-81
2021/10/31 11:00:18;;;;;;;7.22;3.90;;;;;;;;;;4987717;28;20030;-82
2021/10/31 11:02:44;;;;;;;5.65;3.47;;;;;;;;;;4990542;28;20022;-82
2021/10/31 11:05:11;;;;;;;6.70;3.75;;;;;;;;;;4992191;28;20386;-83
2021/10/31 11:07:42;;;;;;;6.07;3.67;;;;;;;;;;4975091;28;20092;-83
2021/10/31 11:10:10;;;;;;;6.82;3.42;;;;;;;;;;4988694;28;20026;-84
2021/10/31 11:12:37;;;;;;;6.32;3.47;;;;;;;;;;4974640;28;20117;-83
2021/10/31 11:15:05;;;;;;;6.07;3.38;;;;;;;;;;4990144;28;20100;-85
2021/10/31 11:17:33;;;;;;;5.45;3.33;;;;;;;;;;4990603;28;20081;-84
2021/10/31 11:19:59;;;;;;;4.43;3.08;;;;;;;;;;4973641;28;20015;-85
2021/10/31 11:22:26;;;;;;;4.78;2.80;;;;;;;;;;4983842;28;20367;-84
2021/10/31 11:24:53;;;;;;;5.90;2.72;;;;;;;;;;4986957;28;20092;-84
2021/10/31 11:27:21;;;;;;;4.63;2.88;;;;;;;;;;4990046;28;20050;-83
2021/10/31 11:29:48;;;;;;;6.15;2.80;;;;;;;;;;4975487;28;20069;-82
2021/10/31 11:32:15;;;;;;;3.70;2.33;;;;;;;;;;4992817;28;20026;-82
2021/10/31 11:34:43;;;;;;;6.00;3.38;;;;;;;;;;4991872;28;20026;-83
2021/10/31 11:37:12;;;;;;;6.53;2.92;;;;;;;;;;4976655;28;20023;-83
2021/10/31 11:39:38;;;;;;;4.80;2.53;;;;;;;;;;4976157;28;20042;-84
2021/10/31 11:42:05;;;;;;;5.18;3.00;;;;;;;;;;4979442;28;20037;-83
2021/10/31 11:44:31;;;;;;;5.05;3.10;;;;;;;;;;4989603;28;20036;-83
2021/10/31 11:46:58;;;;;;;5.38;2.88;;;;;;;;;;4993652;28;20057;-83
2021/10/31 11:49:24;;;;;;;5.18;2.83;;;;;;;;;;4983813;28;20019;-83
2021/10/31 11:51:54;;;;;;;8.73;2.65;;;;;;;;;;4973195;28;20033;-83
2021/10/31 11:54:21;;;;;;;5.13;2.70;;;;;;;;;;4988957;28;20050;-83
2021/10/31 11:56:51;;;;;;;3.53;2.15;;;;;;;;;;4983340;28;20082;-83
2021/10/31 11:59:18;;;;;;;4.05;2.28;;;;;;;;;;4988252;28;20038;-84
2021/10/31 12:01:47;;;;;;;4.30;2.47;;;;;;;;;;4985703;28;20026;-83
2021/10/31 12:05:15;;;;;;;3.83;2.05;;;;;;;;;;4990197;28;20026;-83
2021/10/31 12:07:33;;;;;;;3.13;1.92;;;;;;;;;;4981245;28;20050;-84
2021/10/31 12:09:59;;;;;;;5.60;2.15;;;;;;;;;;4984481;28;20045;-83
2021/10/31 12:12:25;;;;;;;3.22;2.03;;;;;;;;;;4995371;28;20027;-83
2021/10/31 12:14:53;;;;;;;3.08;1.60;;;;;;;;;;4980209;28;20038;-83
2021/10/31 12:17:20;;;;;;;3.85;2.00;;;;;;;;;;4985920;28;20033;-83
2021/10/31 12:19:48;;;;;;;4.82;2.65;;;;;;;;;;4980106;28;20027;-83
2021/10/31 12:22:19;;;;;;;5.47;2.65;;;;;;;;;;4990521;28;20019;-83
2021/10/31 12:24:50;;;;;;;3.45;2.15;;;;;;;;;;4984204;28;20026;-83
2021/10/31 12:27:21;;;;;;;3.25;1.98;;;;;;;;;;4975550;28;20034;-83
2021/10/31 12:30:06;;;;;;;2.60;1.67;;;;;;;;;;4999556;28;20022;-83
2021/10/31 12:32:39;;;;;;;3.80;1.92;;;;;;;;;;4991765;28;20489;-83
2021/10/31 12:35:05;;;;;;;;;;;;;;;;;;4992792;28;20074;-83
2021/10/31 12:37:31;;;;;;;4.07;1.77;;;;;;;;;;4990166;28;19914;-82
2021/10/31 12:39:57;;;;;;;3.60;1.98;;;;;;;;;;4980234;28;20569;-83
2021/10/31 12:43:04;;;;;;;3.97;2.30;;;;;;;;;;4983236;28;20049;-83
2021/10/31 12:45:30;;;;;;;3.97;2.70;;;;;;;;;;4904782;29;20039;-83
2021/10/31 12:48:10;;;;;;;3.60;2.33;;;;;;;;;;4972682;28;20390;-83
2021/10/31 12:50:37;;;;;;;3.97;2.50;;;;;;;;;;4983576;28;20085;-83
2021/10/31 12:53:11;;;;;;;4.25;2.65;;;;;;;;;;4987673;28;20090;-83
2021/10/31 12:55:38;;;;;;;4.18;2.38;;;;;;;;;;4982561;28;20136;-83
2021/10/31 12:58:06;;;;;;;4.30;2.80;;;;;;;;;;4987038;28;20041;-83
2021/10/31 13:00:33;;;;;;;4.40;2.67;;;;;;;;;;4997200;28;20041;-83
2021/10/31 13:03:02;;;;;;;4.85;2.80;;;;;;;;;;4992219;28;20033;-83
2021/10/31 13:05:36;;;;;;;4.95;2.70;;;;;;;;;;4994583;28;20014;-83
2021/10/31 13:08:03;;;;;;;5.10;2.40;;;;;;;;;;4989072;28;20540;-83
2021/10/31 13:10:49;;;;;;;4.22;2.45;;;;;;;;;;4998664;28;20393;-83
2021/10/31 13:13:16;;;;;;;3.65;2.40;;;;;;;;;;4983278;28;20035;-83
2021/10/31 13:15:44;;;;;;;3.88;2.20;;;;;;;;;;4994303;28;20577;-83
2021/10/31 13:18:28;;;;;;;3.95;2.38;;;;;;;;;;4978912;28;20026;-83
2021/10/31 13:21:01;;;;;;;3.00;2.10;;;;;;;;;;4997466;28;20093;-83
2021/10/31 13:23:29;;;;;;;4.78;2.58;;;;;;;;;;4984141;28;20306;-83
2021/10/31 13:25:59;;;;;;;6.22;3.22;;;;;;;;;;4990442;28;20474;-83
2021/10/31 13:28:30;;;;;;;3.75;2.60;;;;;;;;;;5000609;28;20061;-83
2021/10/31 13:30:58;;;;;;;5.65;3.15;;;;;;;;;;4986950;28;20105;-83
2021/10/31 13:33:45;;;;;;;4.85;2.90;;;;;;;;;;4992395;28;20034;-83
2021/10/31 13:36:16;;;;;;;6.13;3.13;;;;;;;;;;4993273;28;20023;-83
2021/10/31 13:39:04;;;;;;;7.38;2.53;;;;;;;;;;4985956;28;20033;-83
2021/10/31 13:41:33;;;;;;;5.53;2.67;;;;;;;;;;4985181;28;20038;-83
2021/10/31 13:44:01;;;;;;;5.00;2.88;;;;;;;;;;4980672;28;20021;-83
2021/10/31 13:46:34;;;;;;;5.30;3.22;;;;;;;;;;4984350;28;20018;-83
2021/10/31 13:49:00;;;;;;;;;;;;;;;;;;4981006;28;20438;-83
2021/10/31 13:51:26;;;;;;;5.18;2.95;;;;;;;;;;5000532;28;19912;-83
2021/10/31 13:53:53;;;;;;;5.72;3.17;;;;;;;;;;5000140;28;20121;-83
2021/10/31 13:56:19;;;;;;;7.70;4.05;;;;;;;;;;4995971;28;20026;-82
2021/10/31 13:58:45;;;;;;;6.15;4.13;;;;;;;;;;4979332;28;20053;-82
2021/10/31 14:01:28;;;;;;;7.78;3.92;;;;;;;;;;4978293;28;20550;-82
2021/10/31 14:04:05;;;;;;;12.40;4.30;;;;;;;;;;4976569;28;20273;-83
2021/10/31 14:06:30;;;;;;;6.65;4.03;;;;;;;;;;4991642;28;20741;-82
2021/10/31 14:09:00;;;;;;;7.43;4.70;;;;;;;;;;4990095;28;20026;-82
2021/10/31 14:11:28;;;;;;;6.30;4.32;;;;;;;;;;4984475;28;20030;-83
2021/10/31 14:13:54;;;;;;;8.98;4.85;;;;;;;;;;4978826;28;20387;-83
2021/10/31 14:16:21;;;;;;;9.38;5.13;;;;;;;;;;4979761;28;20030;-82
2021/10/31 14:18:47;;;;;;;6.43;4.32;;;;;;;;;;4987375;28;20026;-83
2021/10/31 14:21:14;;;;;;;8.63;4.63;;;;;;;;;;4995226;28;20054;-82
2021/10/31 14:23:41;;;;;;;7.45;4.47;;;;;;;;;;4979736;28;20378;-82
2021/10/31 14:26:12;;;;;;;6.10;3.58;;;;;;;;;;4995718;28;20378;-83
2021/10/31 14:28:41;;;;;;;6.57;4.47;;;;;;;;;;4980754;28;20030;-82
2021/10/31 14:31:10;;;;;;;8.45;4.32;;;;;;;;;;4978079;28;20092;-83
2021/10/31 14:33:38;;;;;;;8.15;4.35;;;;;;;;;;4990217;28;20034;-83
2021/10/31 14:36:10;;;;;;;8.63;5.00;;;;;;;;;;4993365;28;20122;-82
2021/10/31 14:38:38;;;;;;;14.95;5.75;;;;;;;;;;4996113;28;20029;-82